createdAt,value
2022-10-06T00:00:54.741Z,958.5
2022-10-06T00:02:00.921Z,958.5
2022-10-06T00:03:06.067Z,958.5
2022-10-06T00:04:12.245Z,958.5
2022-10-06T00:05:18.430Z,958.5
2022-10-06T00:06:24.607Z,958.5
2022-10-06T00:07:30.762Z,958.5
2022-10-06T00:08:36.957Z,958.5
2022-10-06T00:09:43.107Z,958.5
2022-10-06T00:10:49.272Z,958.5
2022-10-06T00:11:55.470Z,958.5
2022-10-06T00:13:01.607Z,958.6
2022-10-06T00:14:07.783Z,958.6
2022-10-06T00:15:13.932Z,958.6
2022-10-06T00:16:20.109Z,958.6
2022-10-06T00:17:25.291Z,958.6
2022-10-06T00:18:31.472Z,958.6
2022-10-06T00:19:37.661Z,958.6
2022-10-06T00:20:43.817Z,958.6
2022-10-06T00:21:49.962Z,958.6
2022-10-06T00:22:56.145Z,958.6
2022-10-06T00:24:02.314Z,958.6
2022-10-06T00:25:08.504Z,958.6
2022-10-06T00:26:14.650Z,958.6
2022-10-06T00:27:20.830Z,958.6
2022-10-06T00:28:26.991Z,958.6
2022-10-06T00:29:33.172Z,958.6
2022-10-06T00:30:39.344Z,958.6
2022-10-06T00:31:44.522Z,958.6
2022-10-06T00:32:50.682Z,958.6
2022-10-06T00:33:56.848Z,958.6
2022-10-06T00:35:03.019Z,958.5
2022-10-06T00:36:09.197Z,958.6
2022-10-06T00:37:15.368Z,958.6
2022-10-06T00:38:21.540Z,958.6
2022-10-06T00:39:27.744Z,958.6
2022-10-06T00:40:33.886Z,958.6
2022-10-06T00:41:40.046Z,958.6
2022-10-06T00:42:46.234Z,958.6
2022-10-06T00:43:52.445Z,958.6
2022-10-06T00:44:58.562Z,958.6
2022-10-06T00:46:03.753Z,958.6
2022-10-06T00:47:09.920Z,958.6
2022-10-06T00:48:16.099Z,958.7
2022-10-06T00:49:22.307Z,958.7
2022-10-06T00:50:28.418Z,958.7
2022-10-06T00:51:34.587Z,958.7
2022-10-06T00:52:40.767Z,958.7
2022-10-06T00:53:46.920Z,958.7
2022-10-06T00:55:59.263Z,958.6
2022-10-06T00:57:05.506Z,958.6
2022-10-06T00:58:11.596Z,958.6
2022-10-06T00:59:17.772Z,958.6
2022-10-06T01:00:22.962Z,958.6
2022-10-06T01:01:29.128Z,958.7
2022-10-06T01:02:35.293Z,958.7
2022-10-06T01:03:41.466Z,958.7
2022-10-06T01:04:47.642Z,958.7
2022-10-06T01:05:53.811Z,958.7
2022-10-06T01:07:00.041Z,958.7
2022-10-06T01:08:06.168Z,958.7
2022-10-06T01:09:12.322Z,958.7
2022-10-06T01:10:18.498Z,958.7
2022-10-06T01:11:24.664Z,958.7
2022-10-06T01:12:30.960Z,958.7
2022-10-06T01:13:37.003Z,958.7
2022-10-06T01:14:42.194Z,958.7
2022-10-06T01:15:48.355Z,958.7
2022-10-06T01:16:54.518Z,958.7
2022-10-06T01:18:00.693Z,958.7
2022-10-06T01:19:06.898Z,958.7
2022-10-06T01:20:13.056Z,958.7
2022-10-06T01:21:19.204Z,958.7
2022-10-06T01:22:25.356Z,958.7
2022-10-06T01:23:31.547Z,958.7
2022-10-06T01:24:37.715Z,958.8
2022-10-06T01:25:43.890Z,958.8
2022-10-06T01:27:56.234Z,958.8
2022-10-06T01:29:01.407Z,958.8
2022-10-06T01:30:07.585Z,958.9
2022-10-06T01:31:13.762Z,958.9
2022-10-06T01:32:19.919Z,958.9
2022-10-06T01:33:26.083Z,958.9
2022-10-06T01:34:32.254Z,958.9
2022-10-06T01:35:38.427Z,958.9
2022-10-06T01:36:44.585Z,958.9
2022-10-06T01:37:50.760Z,958.9
2022-10-06T01:38:56.942Z,958.9
2022-10-06T01:40:03.130Z,958.9
2022-10-06T01:41:09.266Z,958.9
2022-10-06T01:42:15.455Z,958.9
2022-10-06T01:43:20.664Z,958.9
2022-10-06T01:44:26.797Z,958.9
2022-10-06T01:45:32.974Z,959
2022-10-06T01:46:39.155Z,959
2022-10-06T01:47:45.311Z,959
2022-10-06T01:48:51.488Z,959
2022-10-06T01:49:57.644Z,959
2022-10-06T01:51:03.804Z,959.1
2022-10-06T01:52:09.994Z,959.1
2022-10-06T01:53:16.174Z,959.1
2022-10-06T01:54:22.321Z,959.1
2022-10-06T01:55:28.507Z,959.1
2022-10-06T01:56:34.674Z,959.1
2022-10-06T01:58:46.008Z,959.1
2022-10-06T01:59:52.187Z,959.1
2022-10-06T02:00:58.364Z,959
2022-10-06T02:02:04.529Z,959
2022-10-06T02:03:10.685Z,959
2022-10-06T02:04:16.867Z,959
2022-10-06T02:05:23.021Z,959
2022-10-06T02:06:29.204Z,959
2022-10-06T02:07:35.424Z,959
2022-10-06T02:08:41.557Z,959
2022-10-06T02:09:47.721Z,958.9
2022-10-06T02:10:53.886Z,958.9
2022-10-06T02:11:59.063Z,958.9
2022-10-06T02:13:05.241Z,958.9
2022-10-06T02:14:11.420Z,959
2022-10-06T02:15:17.571Z,959
2022-10-06T02:16:23.735Z,959
2022-10-06T02:17:29.923Z,959
2022-10-06T02:18:35.126Z,959.1
2022-10-06T02:19:41.275Z,959.1
2022-10-06T02:20:47.446Z,959.1
2022-10-06T02:21:53.623Z,959.1
2022-10-06T02:22:59.774Z,959.1
2022-10-06T02:24:05.949Z,959.1
2022-10-06T02:25:12.122Z,959.1
2022-10-06T02:26:18.310Z,959.1
2022-10-06T02:27:24.462Z,959.1
2022-10-06T02:28:30.635Z,959.1
2022-10-06T02:29:36.797Z,959.1
2022-10-06T02:30:42.987Z,959.1
2022-10-06T02:31:49.136Z,959.2
2022-10-06T02:32:54.358Z,959.2
2022-10-06T02:34:00.539Z,959.2
2022-10-06T02:35:06.669Z,959.2
2022-10-06T02:36:12.849Z,959.2
2022-10-06T02:37:19.006Z,959.2
2022-10-06T02:38:25.164Z,959.2
2022-10-06T02:39:31.355Z,959.2
2022-10-06T02:40:37.524Z,959.3
2022-10-06T02:41:43.713Z,959.3
2022-10-06T02:42:49.947Z,959.3
2022-10-06T02:45:02.197Z,959.3
2022-10-06T02:46:08.364Z,959.4
2022-10-06T02:47:13.584Z,959.4
2022-10-06T02:48:19.721Z,959.4
2022-10-06T02:49:25.897Z,959.4
2022-10-06T02:50:32.063Z,959.4
2022-10-06T02:51:38.224Z,959.4
2022-10-06T02:52:44.388Z,959.4
2022-10-06T02:53:50.587Z,959.4
2022-10-06T02:54:56.747Z,959.4
2022-10-06T02:56:02.920Z,959.4
2022-10-06T02:57:09.082Z,959.4
2022-10-06T02:58:15.257Z,959.4
2022-10-06T02:59:21.418Z,959.5
2022-10-06T03:00:27.577Z,959.5
2022-10-06T03:01:32.758Z,959.5
2022-10-06T03:02:38.964Z,959.5
2022-10-06T03:03:45.137Z,959.5
2022-10-06T03:04:51.279Z,959.5
2022-10-06T03:05:57.452Z,959.5
2022-10-06T03:07:03.625Z,959.5
2022-10-06T03:08:09.787Z,959.5
2022-10-06T03:09:16.032Z,959.5
2022-10-06T03:10:22.157Z,959.5
2022-10-06T03:11:28.303Z,959.5
2022-10-06T03:12:34.466Z,959.5
2022-10-06T03:13:40.633Z,959.5
2022-10-06T03:14:46.804Z,959.5
2022-10-06T03:15:51.993Z,959.6
2022-10-06T03:16:58.158Z,959.6
2022-10-06T03:18:04.355Z,959.6
2022-10-06T03:19:10.503Z,959.6
2022-10-06T03:20:16.685Z,959.7
2022-10-06T03:21:22.843Z,959.7
2022-10-06T03:22:29.006Z,959.7
2022-10-06T03:23:35.186Z,959.7
2022-10-06T03:24:41.356Z,959.7
2022-10-06T03:25:47.518Z,959.7
2022-10-06T03:26:53.693Z,959.7
2022-10-06T03:27:59.868Z,959.8
2022-10-06T03:29:06.037Z,959.8
2022-10-06T03:30:11.225Z,959.8
2022-10-06T03:31:17.381Z,959.8
2022-10-06T03:32:23.613Z,959.8
2022-10-06T03:33:29.724Z,959.8
2022-10-06T03:34:35.929Z,959.9
2022-10-06T03:35:42.061Z,959.9
2022-10-06T03:36:48.233Z,959.9
2022-10-06T03:37:54.401Z,959.9
2022-10-06T03:39:00.598Z,959.9
2022-10-06T03:40:06.747Z,959.9
2022-10-06T03:41:12.902Z,959.9
2022-10-06T03:42:19.084Z,959.9
2022-10-06T03:43:25.254Z,959.9
2022-10-06T03:44:30.423Z,960
2022-10-06T03:45:36.605Z,960
2022-10-06T03:46:42.776Z,960
2022-10-06T03:47:48.935Z,960
2022-10-06T03:48:55.109Z,960
2022-10-06T03:50:01.272Z,960
2022-10-06T03:51:07.443Z,960
2022-10-06T03:52:13.631Z,960
2022-10-06T03:53:19.865Z,960
2022-10-06T03:54:25.956Z,960.1
2022-10-06T03:55:32.145Z,960.1
2022-10-06T03:56:38.284Z,960.1
2022-10-06T03:57:44.476Z,960.1
2022-10-06T03:58:49.643Z,960.1
2022-10-06T03:59:55.850Z,960.1
2022-10-06T04:01:01.994Z,960.1
2022-10-06T04:02:08.151Z,960.1
2022-10-06T04:03:14.349Z,960.1
2022-10-06T04:04:20.506Z,960.1
2022-10-06T04:05:26.680Z,960.1
2022-10-06T04:06:32.835Z,960.2
2022-10-06T04:07:39.000Z,960.2
2022-10-06T04:08:45.183Z,960.2
2022-10-06T04:09:51.355Z,960.2
2022-10-06T04:10:57.519Z,960.2
2022-10-06T04:12:03.693Z,960.2
2022-10-06T04:13:08.862Z,960.2
2022-10-06T04:14:15.044Z,960.2
2022-10-06T04:15:21.219Z,960.2
2022-10-06T04:16:27.390Z,960.2
2022-10-06T04:17:33.553Z,960.2
2022-10-06T04:18:39.714Z,960.2
2022-10-06T04:19:45.897Z,960.2
2022-10-06T04:20:52.059Z,960.2
2022-10-06T04:21:58.239Z,960.2
2022-10-06T04:23:04.399Z,960.2
2022-10-06T04:24:10.562Z,960.2
2022-10-06T04:25:16.732Z,960.2
2022-10-06T04:26:22.909Z,960.3
2022-10-06T04:27:28.103Z,960.3
2022-10-06T04:28:34.269Z,960.3
2022-10-06T04:29:40.418Z,960.3
2022-10-06T04:30:46.596Z,960.3
2022-10-06T04:31:52.786Z,960.4
2022-10-06T04:32:58.934Z,960.4
2022-10-06T04:34:05.102Z,960.4
2022-10-06T04:35:11.295Z,960.4
2022-10-06T04:36:17.455Z,960.3
2022-10-06T04:37:23.625Z,960.3
2022-10-06T04:38:29.798Z,960.4
2022-10-06T04:39:35.950Z,960.3
2022-10-06T04:40:42.134Z,960.3
2022-10-06T04:41:47.319Z,960.3
2022-10-06T04:42:53.509Z,960.3
2022-10-06T04:43:59.644Z,960.3
2022-10-06T04:45:05.822Z,960.4
2022-10-06T04:46:11.982Z,960.4
2022-10-06T04:47:18.151Z,960.4
2022-10-06T04:48:24.319Z,960.4
2022-10-06T04:49:30.507Z,960.4
2022-10-06T04:50:36.671Z,960.5
2022-10-06T04:51:42.849Z,960.5
2022-10-06T04:52:48.997Z,960.5
2022-10-06T04:53:55.159Z,960.5
2022-10-06T04:55:01.352Z,960.5
2022-10-06T04:56:06.623Z,960.5
2022-10-06T04:57:12.728Z,960.5
2022-10-06T04:58:19.000Z,960.5
2022-10-06T04:59:25.033Z,960.5
2022-10-06T05:00:31.305Z,960.5
2022-10-06T05:01:37.405Z,960.5
2022-10-06T05:02:43.675Z,960.5
2022-10-06T05:03:49.769Z,960.5
2022-10-06T05:04:55.957Z,960.5
2022-10-06T05:06:02.231Z,960.6
2022-10-06T05:07:08.445Z,960.6
2022-10-06T05:08:14.394Z,960.6
2022-10-06T05:09:20.696Z,960.5
2022-10-06T05:10:25.881Z,960.6
2022-10-06T05:11:32.090Z,960.6
2022-10-06T05:12:38.096Z,960.6
2022-10-06T05:13:44.261Z,960.5
2022-10-06T05:14:50.417Z,960.6
2022-10-06T05:15:56.606Z,960.6
2022-10-06T05:17:02.775Z,960.6
2022-10-06T05:18:08.931Z,960.6
2022-10-06T05:19:15.115Z,960.6
2022-10-06T05:20:21.279Z,960.6
2022-10-06T05:21:27.443Z,960.6
2022-10-06T05:22:33.610Z,960.6
2022-10-06T05:23:39.788Z,960.6
2022-10-06T05:24:44.968Z,960.6
2022-10-06T05:25:51.133Z,960.6
2022-10-06T05:26:57.299Z,960.6
2022-10-06T05:28:03.467Z,960.7
2022-10-06T05:29:09.645Z,960.7
2022-10-06T05:30:15.805Z,960.7
2022-10-06T05:31:21.989Z,960.7
2022-10-06T05:32:28.156Z,960.7
2022-10-06T05:33:34.333Z,960.7
2022-10-06T05:34:40.489Z,960.7
2022-10-06T05:35:46.660Z,960.7
2022-10-06T05:36:52.829Z,960.8
2022-10-06T05:37:58.992Z,960.8
2022-10-06T05:39:04.183Z,960.8
2022-10-06T05:40:10.348Z,960.8
2022-10-06T05:41:16.511Z,960.9
2022-10-06T05:42:22.694Z,960.9
2022-10-06T05:43:28.861Z,960.9
2022-10-06T05:44:35.119Z,961
2022-10-06T05:45:41.190Z,961
2022-10-06T05:46:47.366Z,961
2022-10-06T05:47:53.568Z,961
2022-10-06T05:48:59.721Z,961
2022-10-06T05:50:05.864Z,961
2022-10-06T05:51:12.075Z,961.1
2022-10-06T05:52:18.220Z,961.1
2022-10-06T05:53:23.418Z,961.1
2022-10-06T05:54:29.594Z,961.1
2022-10-06T05:55:35.749Z,961.1
2022-10-06T05:56:41.903Z,961.1
2022-10-06T05:57:48.093Z,961.1
2022-10-06T05:58:54.246Z,961.1
2022-10-06T05:59:59.435Z,961.1
2022-10-06T06:01:05.616Z,961.1
2022-10-06T06:02:11.775Z,961.1
2022-10-06T06:03:17.952Z,961.1
2022-10-06T06:04:24.140Z,961.1
2022-10-06T06:05:30.292Z,961.2
2022-10-06T06:06:36.475Z,961.2
2022-10-06T06:07:42.614Z,961.2
2022-10-06T06:08:48.794Z,961.2
2022-10-06T06:09:54.969Z,961.2
2022-10-06T06:11:01.145Z,961.2
2022-10-06T06:12:07.315Z,961.3
2022-10-06T06:13:13.464Z,961.3
2022-10-06T06:14:18.664Z,961.3
2022-10-06T06:15:24.841Z,961.3
2022-10-06T06:16:31.009Z,961.3
2022-10-06T06:17:37.180Z,961.3
2022-10-06T06:18:43.358Z,961.3
2022-10-06T06:19:49.520Z,961.3
2022-10-06T06:20:55.696Z,961.3
2022-10-06T06:22:01.849Z,961.3
2022-10-06T06:23:08.015Z,961.3
2022-10-06T06:24:14.184Z,961.3
2022-10-06T06:25:20.359Z,961.4
2022-10-06T06:26:26.533Z,961.4
2022-10-06T06:27:32.689Z,961.4
2022-10-06T06:28:37.882Z,961.4
2022-10-06T06:29:44.062Z,961.4
2022-10-06T06:30:50.352Z,961.4
2022-10-06T06:31:56.373Z,961.4
2022-10-06T06:34:08.736Z,961.4
2022-10-06T06:35:14.917Z,961.5
2022-10-06T06:36:21.165Z,961.5
2022-10-06T06:37:27.237Z,961.5
2022-10-06T06:38:33.403Z,961.6
2022-10-06T06:39:39.587Z,961.6
2022-10-06T06:40:45.746Z,961.6
2022-10-06T06:41:51.925Z,961.6
2022-10-06T06:42:57.102Z,961.6
2022-10-06T06:44:03.270Z,961.7
2022-10-06T06:45:09.435Z,961.7
2022-10-06T06:46:15.623Z,961.7
2022-10-06T06:47:21.804Z,961.7
2022-10-06T06:48:28.016Z,961.7
2022-10-06T06:49:34.142Z,961.7
2022-10-06T06:50:40.284Z,961.7
2022-10-06T06:51:46.447Z,961.7
2022-10-06T06:52:52.637Z,961.7
2022-10-06T06:53:58.805Z,961.7
2022-10-06T06:55:04.967Z,961.7
2022-10-06T06:56:11.146Z,961.6
2022-10-06T06:57:16.322Z,961.6
2022-10-06T06:58:22.571Z,961.6
2022-10-06T06:59:28.675Z,961.7
2022-10-06T07:00:34.850Z,961.7
2022-10-06T07:01:41.009Z,961.7
2022-10-06T07:02:47.208Z,961.7
2022-10-06T07:03:53.356Z,961.7
2022-10-06T07:04:59.504Z,961.7
2022-10-06T07:06:05.665Z,961.8
2022-10-06T07:07:11.850Z,961.8
2022-10-06T07:08:18.088Z,961.8
2022-10-06T07:09:24.191Z,961.8
2022-10-06T07:10:30.361Z,961.8
2022-10-06T07:11:35.538Z,961.8
2022-10-06T07:12:41.872Z,961.8
2022-10-06T07:13:48.039Z,961.8
2022-10-06T07:14:54.198Z,961.8
2022-10-06T07:16:00.326Z,961.8
2022-10-06T07:17:06.527Z,961.9
2022-10-06T07:18:12.710Z,961.9
2022-10-06T07:19:18.844Z,961.9
2022-10-06T07:20:24.917Z,961.9
2022-10-06T07:21:31.056Z,962
2022-10-06T07:22:37.266Z,962
2022-10-06T07:23:43.409Z,962
2022-10-06T07:24:49.577Z,962
2022-10-06T07:25:54.831Z,962
2022-10-06T07:27:00.930Z,962
2022-10-06T07:28:07.282Z,962
2022-10-06T07:29:13.309Z,962
2022-10-06T07:30:19.443Z,962.1
2022-10-06T07:31:25.613Z,962.1
2022-10-06T07:32:31.850Z,962.1
2022-10-06T07:33:37.940Z,962.1
2022-10-06T07:34:44.200Z,962.1
2022-10-06T07:35:50.314Z,962.2
2022-10-06T07:36:56.534Z,962.2
2022-10-06T07:38:02.650Z,962.2
2022-10-06T07:40:14.964Z,962.2
2022-10-06T07:41:20.160Z,962.2
2022-10-06T07:42:26.403Z,962.3
2022-10-06T07:43:32.474Z,962.3
2022-10-06T07:44:38.689Z,962.2
2022-10-06T07:45:44.829Z,962.3
2022-10-06T07:46:50.986Z,962.2
2022-10-06T07:47:57.153Z,962.2
2022-10-06T07:49:03.353Z,962.3
2022-10-06T07:50:09.504Z,962.3
2022-10-06T07:51:15.714Z,962.3
2022-10-06T07:52:21.846Z,962.3
2022-10-06T07:53:28.019Z,962.3
2022-10-06T07:54:34.273Z,962.3
2022-10-06T07:55:39.387Z,962.3
2022-10-06T07:56:45.539Z,962.3
2022-10-06T07:57:51.746Z,962.3
2022-10-06T07:58:57.903Z,962.4
2022-10-06T08:00:04.042Z,962.4
2022-10-06T08:01:10.209Z,962.4
2022-10-06T08:02:16.375Z,962.4
2022-10-06T08:03:22.557Z,962.4
2022-10-06T08:04:28.717Z,962.4
2022-10-06T08:05:34.881Z,962.4
2022-10-06T08:06:41.043Z,962.4
2022-10-06T08:07:47.230Z,962.4
2022-10-06T08:08:53.419Z,962.4
2022-10-06T08:09:58.582Z,962.4
2022-10-06T08:11:04.754Z,962.4
2022-10-06T08:12:10.904Z,962.4
2022-10-06T08:13:17.092Z,962.4
2022-10-06T08:14:23.256Z,962.4
2022-10-06T08:15:29.467Z,962.4
2022-10-06T08:16:35.591Z,962.4
2022-10-06T08:17:41.812Z,962.4
2022-10-06T08:18:47.951Z,962.4
2022-10-06T08:19:54.095Z,962.4
2022-10-06T08:21:00.268Z,962.4
2022-10-06T08:22:06.426Z,962.4
2022-10-06T08:23:12.599Z,962.5
2022-10-06T08:24:17.808Z,962.5
2022-10-06T08:25:23.954Z,962.5
2022-10-06T08:26:30.128Z,962.5
2022-10-06T08:27:36.345Z,962.4
2022-10-06T08:28:42.470Z,962.5
2022-10-06T08:29:48.695Z,962.5
2022-10-06T08:30:54.809Z,962.5
2022-10-06T08:32:01.004Z,962.5
2022-10-06T08:33:07.137Z,962.5
2022-10-06T08:34:13.360Z,962.5
2022-10-06T08:35:19.516Z,962.5
2022-10-06T08:36:25.650Z,962.5
2022-10-06T08:37:31.829Z,962.5
2022-10-06T08:38:37.025Z,962.5
2022-10-06T08:39:43.200Z,962.5
2022-10-06T08:40:49.349Z,962.5
2022-10-06T08:41:55.560Z,962.5
2022-10-06T08:43:01.697Z,962.5
2022-10-06T08:44:07.843Z,962.5
2022-10-06T08:45:14.017Z,962.5
2022-10-06T08:46:20.195Z,962.5
2022-10-06T08:47:26.363Z,962.5
2022-10-06T08:48:32.528Z,962.4
2022-10-06T08:49:38.690Z,962.4
2022-10-06T08:50:44.969Z,962.4
2022-10-06T08:51:51.043Z,962.5
2022-10-06T08:52:56.317Z,962.5
2022-10-06T08:54:02.442Z,962.5
2022-10-06T08:55:08.600Z,962.5
2022-10-06T08:56:14.735Z,962.5
2022-10-06T08:57:20.911Z,962.5
2022-10-06T08:58:27.072Z,962.5
2022-10-06T08:59:33.268Z,962.5
2022-10-06T09:00:39.446Z,962.5
2022-10-06T09:01:45.629Z,962.5
2022-10-06T09:02:51.752Z,962.5
2022-10-06T09:03:57.914Z,962.5
2022-10-06T09:05:04.102Z,962.5
2022-10-06T09:06:10.263Z,962.5
2022-10-06T09:07:15.454Z,962.5
2022-10-06T09:08:21.612Z,962.5
2022-10-06T09:09:27.821Z,962.5
2022-10-06T09:10:33.969Z,962.6
2022-10-06T09:11:40.142Z,962.6
2022-10-06T09:12:46.278Z,962.6
2022-10-06T09:13:52.457Z,962.6
2022-10-06T09:14:58.695Z,962.6
2022-10-06T09:16:04.808Z,962.6
2022-10-06T09:17:10.990Z,962.6
2022-10-06T09:19:23.312Z,962.6
2022-10-06T09:20:29.485Z,962.6
2022-10-06T09:21:34.705Z,962.6
2022-10-06T09:22:40.941Z,962.6
2022-10-06T09:23:47.150Z,962.6
2022-10-06T09:24:53.245Z,962.7
2022-10-06T09:28:24.746Z,962.6
2022-10-06T09:29:17.835Z,962.6
2022-10-06T09:33:34.457Z,962.7
2022-10-06T09:34:58.909Z,962.7
2022-10-06T09:40:18.553Z,962.7
2022-10-06T09:41:24.675Z,962.8
2022-10-06T09:43:36.262Z,962.7
2022-10-06T09:44:54.749Z,962.7
2022-10-06T09:45:48.439Z,962.7
2022-10-06T09:46:54.607Z,962.7
2022-10-06T09:48:14.805Z,962.7
2022-10-06T09:49:07.089Z,962.7
2022-10-06T09:50:13.101Z,962.7
2022-10-06T09:51:19.267Z,962.7
2022-10-06T09:52:25.565Z,962.7
2022-10-06T09:53:31.643Z,962.7
2022-10-06T09:54:37.794Z,962.7
2022-10-06T09:55:43.016Z,962.7
2022-10-06T09:56:49.128Z,962.7
2022-10-06T09:57:55.303Z,962.7
2022-10-06T09:59:01.485Z,962.7
2022-10-06T10:00:07.646Z,962.7
2022-10-06T10:01:13.814Z,962.7
2022-10-06T10:02:19.979Z,962.7
2022-10-06T10:03:26.148Z,962.7
2022-10-06T10:04:32.331Z,962.7
2022-10-06T10:05:38.507Z,962.7
2022-10-06T10:06:44.680Z,962.7
2022-10-06T10:07:50.875Z,962.7
2022-10-06T10:08:57.039Z,962.7
2022-10-06T10:10:02.186Z,962.7
2022-10-06T10:11:08.354Z,962.7
2022-10-06T10:12:14.523Z,962.7
2022-10-06T10:13:20.704Z,962.8
2022-10-06T10:14:26.855Z,962.8
2022-10-06T10:15:33.025Z,962.8
2022-10-06T10:16:39.202Z,962.8
2022-10-06T10:17:45.367Z,962.8
2022-10-06T10:18:51.547Z,962.7
2022-10-06T10:19:57.701Z,962.7
2022-10-06T10:21:03.902Z,962.7
2022-10-06T10:22:10.042Z,962.7
2022-10-06T10:23:16.228Z,962.6
2022-10-06T10:24:21.399Z,962.7
2022-10-06T10:25:27.560Z,962.7
2022-10-06T10:26:33.734Z,962.7
2022-10-06T10:27:39.915Z,962.7
2022-10-06T10:28:46.081Z,962.7
2022-10-06T10:29:52.336Z,962.7
2022-10-06T10:30:58.454Z,962.7
2022-10-06T10:32:04.637Z,962.7
2022-10-06T10:33:10.775Z,962.7
2022-10-06T10:34:16.931Z,962.7
2022-10-06T10:35:23.094Z,962.7
2022-10-06T10:36:29.259Z,962.7
2022-10-06T10:37:35.435Z,962.7
2022-10-06T10:38:40.625Z,962.7
2022-10-06T10:39:46.795Z,962.7
2022-10-06T10:40:52.970Z,962.7
2022-10-06T10:41:59.121Z,962.7
2022-10-06T10:43:05.286Z,962.7
2022-10-06T10:44:11.462Z,962.7
2022-10-06T10:45:17.676Z,962.7
2022-10-06T10:46:23.795Z,962.7
2022-10-06T10:47:30.017Z,962.6
2022-10-06T10:48:36.132Z,962.6
2022-10-06T10:49:42.327Z,962.6
2022-10-06T10:50:48.496Z,962.6
2022-10-06T10:51:54.663Z,962.7
2022-10-06T10:52:59.863Z,962.6
2022-10-06T10:54:06.024Z,962.6
2022-10-06T10:55:12.167Z,962.6
2022-10-06T10:56:18.442Z,962.6
2022-10-06T10:57:24.543Z,962.6
2022-10-06T10:58:30.707Z,962.6
2022-10-06T10:59:36.854Z,962.6
2022-10-06T11:00:43.012Z,962.5
2022-10-06T11:01:49.172Z,962.5
2022-10-06T11:02:55.357Z,962.5
2022-10-06T11:04:01.514Z,962.5
2022-10-06T11:05:07.683Z,962.5
2022-10-06T11:06:13.857Z,962.5
2022-10-06T11:07:19.051Z,962.5
2022-10-06T11:08:25.232Z,962.5
2022-10-06T11:09:31.408Z,962.5
2022-10-06T11:10:37.553Z,962.5
2022-10-06T11:11:43.731Z,962.5
2022-10-06T11:12:49.906Z,962.5
2022-10-06T11:13:56.060Z,962.5
2022-10-06T11:15:02.246Z,962.5
2022-10-06T11:16:08.404Z,962.6
2022-10-06T11:17:14.575Z,962.6
2022-10-06T11:18:20.737Z,962.6
2022-10-06T11:19:26.911Z,962.6
2022-10-06T11:20:33.142Z,962.6
2022-10-06T11:21:38.296Z,962.5
2022-10-06T11:22:44.446Z,962.6
2022-10-06T11:23:50.638Z,962.5
2022-10-06T11:24:56.800Z,962.5
2022-10-06T11:26:02.943Z,962.4
2022-10-06T11:27:09.120Z,962.4
2022-10-06T11:28:15.280Z,962.4
2022-10-06T11:29:21.450Z,962.4
2022-10-06T11:30:27.631Z,962.4
2022-10-06T11:31:33.794Z,962.4
2022-10-06T11:32:40.041Z,962.5
2022-10-06T11:33:46.171Z,962.4
2022-10-06T11:34:52.386Z,962.3
2022-10-06T11:35:57.499Z,962.3
2022-10-06T11:37:03.680Z,962.3
2022-10-06T11:38:09.855Z,962.3
2022-10-06T11:39:16.031Z,962.3
2022-10-06T11:40:22.168Z,962.3
2022-10-06T11:41:28.331Z,962.3
2022-10-06T11:42:34.504Z,962.2
2022-10-06T11:43:40.685Z,962.2
2022-10-06T11:44:46.850Z,962.2
2022-10-06T11:45:53.034Z,962.2
2022-10-06T11:46:59.277Z,962.2
2022-10-06T11:48:05.360Z,962.1
2022-10-06T11:49:11.517Z,962.1
2022-10-06T11:50:16.711Z,962.1
2022-10-06T11:51:22.876Z,962.1
2022-10-06T11:52:29.047Z,962.1
2022-10-06T11:53:35.212Z,962.2
2022-10-06T11:54:41.399Z,962.1
2022-10-06T11:55:47.557Z,962.1
2022-10-06T11:56:53.723Z,962.1
2022-10-06T11:57:59.906Z,962.1
2022-10-06T11:59:06.100Z,962.1
2022-10-06T12:00:12.226Z,962.1
2022-10-06T12:01:18.480Z,962.1
2022-10-06T12:02:24.565Z,962.1
2022-10-06T12:03:30.769Z,962.1
2022-10-06T12:04:35.963Z,962.1
2022-10-06T12:05:42.087Z,962.1
2022-10-06T12:06:48.360Z,962.1
2022-10-06T12:07:54.445Z,962.2
2022-10-06T12:09:00.610Z,962.2
2022-10-06T12:10:06.776Z,962.2
2022-10-06T12:11:12.956Z,962.2
2022-10-06T12:12:19.105Z,962.2
2022-10-06T12:13:25.283Z,962.2
2022-10-06T12:14:31.442Z,962.2
2022-10-06T12:15:37.661Z,962.2
2022-10-06T12:16:43.796Z,962.1
2022-10-06T12:17:49.947Z,962
2022-10-06T12:18:55.149Z,962.2
2022-10-06T12:20:01.309Z,962.2
2022-10-06T12:21:07.471Z,962.1
2022-10-06T12:22:13.653Z,962
2022-10-06T12:23:19.827Z,962
2022-10-06T12:24:25.980Z,962
2022-10-06T12:25:32.207Z,962
2022-10-06T12:26:38.325Z,962
2022-10-06T12:27:44.501Z,962.1
2022-10-06T12:28:50.661Z,962.1
2022-10-06T12:29:56.831Z,962.1
2022-10-06T12:31:03.011Z,962.1
2022-10-06T12:32:09.257Z,962.1
2022-10-06T12:33:14.510Z,962.1
2022-10-06T12:34:20.536Z,962.1
2022-10-06T12:35:26.702Z,962.1
2022-10-06T12:36:32.909Z,962
2022-10-06T12:37:39.030Z,962
2022-10-06T12:38:45.196Z,962
2022-10-06T12:39:51.376Z,962
2022-10-06T12:40:57.593Z,961.9
2022-10-06T12:42:03.830Z,962
2022-10-06T12:43:10.010Z,961.9
2022-10-06T12:44:16.047Z,961.9
2022-10-06T12:45:22.239Z,962
2022-10-06T12:46:28.382Z,961.9
2022-10-06T12:47:33.595Z,962
2022-10-06T12:48:39.753Z,962
2022-10-06T12:49:45.929Z,962
2022-10-06T12:50:52.107Z,962
2022-10-06T12:51:58.251Z,962
2022-10-06T12:53:04.425Z,962
2022-10-06T12:54:10.607Z,962
2022-10-06T12:55:16.771Z,962
2022-10-06T12:56:22.955Z,962
2022-10-06T12:57:29.160Z,961.9
2022-10-06T12:58:35.280Z,961.9
2022-10-06T12:59:41.444Z,961.9
2022-10-06T13:00:47.615Z,961.9
2022-10-06T13:01:52.811Z,961.8
2022-10-06T13:02:58.969Z,961.8
2022-10-06T13:04:05.147Z,961.8
2022-10-06T13:05:11.298Z,961.8
2022-10-06T13:06:17.495Z,961.7
2022-10-06T13:07:23.677Z,961.8
2022-10-06T13:08:29.823Z,961.7
2022-10-06T13:09:35.979Z,961.7
2022-10-06T13:10:42.157Z,961.8
2022-10-06T13:11:48.327Z,961.8
2022-10-06T13:12:54.500Z,961.8
2022-10-06T13:14:00.656Z,961.8
2022-10-06T13:15:06.855Z,961.7
2022-10-06T13:16:12.112Z,961.8
2022-10-06T13:17:18.248Z,961.8
2022-10-06T13:18:24.359Z,961.8
2022-10-06T13:19:30.542Z,961.8
2022-10-06T13:20:36.715Z,961.7
2022-10-06T13:21:42.900Z,961.7
2022-10-06T13:22:48.059Z,961.7
2022-10-06T13:23:54.236Z,961.7
2022-10-06T13:25:00.400Z,961.7
2022-10-06T13:26:06.646Z,961.6
2022-10-06T13:27:12.739Z,961.7
2022-10-06T13:28:18.909Z,961.6
2022-10-06T13:29:25.142Z,961.6
2022-10-06T13:30:31.251Z,961.6
2022-10-06T13:31:37.406Z,961.6
2022-10-06T13:32:43.593Z,961.5
2022-10-06T13:33:49.757Z,961.6
2022-10-06T13:34:55.940Z,961.6
2022-10-06T13:36:02.109Z,961.7
2022-10-06T13:37:07.291Z,961.7
2022-10-06T13:38:13.538Z,961.5
2022-10-06T13:39:19.621Z,961.6
2022-10-06T13:40:25.792Z,961.6
2022-10-06T13:41:31.956Z,961.7
2022-10-06T13:42:38.141Z,961.7
2022-10-06T13:43:44.358Z,961.7
2022-10-06T13:44:50.470Z,961.7
2022-10-06T13:45:56.645Z,961.7
2022-10-06T13:47:02.807Z,961.7
2022-10-06T13:48:08.974Z,961.7
2022-10-06T13:49:15.155Z,961.7
2022-10-06T13:50:21.301Z,961.7
2022-10-06T13:51:26.516Z,961.7
2022-10-06T13:52:32.676Z,961.7
2022-10-06T13:53:38.846Z,961.7
2022-10-06T13:54:45.006Z,961.7
2022-10-06T13:55:51.183Z,961.7
2022-10-06T13:56:57.350Z,961.7
2022-10-06T13:58:03.512Z,961.7
2022-10-06T13:59:09.703Z,961.7
2022-10-06T14:00:15.865Z,961.7
2022-10-06T14:01:22.060Z,961.6
2022-10-06T14:02:28.216Z,961.7
2022-10-06T14:03:34.376Z,961.6
2022-10-06T14:04:40.525Z,961.6
2022-10-06T14:05:45.730Z,961.6
2022-10-06T14:06:51.889Z,961.6
2022-10-06T14:07:58.053Z,961.6
2022-10-06T14:09:04.272Z,961.6
2022-10-06T14:10:10.385Z,961.6
2022-10-06T14:11:16.574Z,961.6
2022-10-06T14:12:22.730Z,961.6
2022-10-06T14:13:28.897Z,961.6
2022-10-06T14:14:35.153Z,961.6
2022-10-06T14:15:41.258Z,961.6
2022-10-06T14:16:47.416Z,961.6
2022-10-06T14:17:53.589Z,961.6
2022-10-06T14:18:59.772Z,961.6
2022-10-06T14:20:04.934Z,961.6
2022-10-06T14:21:11.123Z,961.6
2022-10-06T14:22:17.301Z,961.6
2022-10-06T14:23:23.437Z,961.5
2022-10-06T14:24:29.605Z,961.5
2022-10-06T14:25:35.788Z,961.5
2022-10-06T14:26:41.956Z,961.5
2022-10-06T14:27:48.188Z,961.4
2022-10-06T14:28:54.301Z,961.4
2022-10-06T14:30:00.466Z,961.4
2022-10-06T14:31:06.634Z,961.4
2022-10-06T14:32:12.822Z,961.3
2022-10-06T14:33:18.979Z,961.3
2022-10-06T14:34:24.165Z,961.3